Time;durP1;ratioP1;P1;durP2;ratioP2;P2;SDS_P1;SDS_P2;PMS_P1;PMS_P2;Temp;Humidity;BMP_temperature;BMP_pressure;BME280_temperature;BME280_humidity;BME280_pressure;Samples;Min_cycle;Max_cycle;Signal;HPM_P1;HPM_P2
2022/08/24 00:01:17;;;;;;;8.60;5.35;;;;;;;;;;5035236;28;20049;-50
2022/08/24 00:03:44;;;;;;;6.90;4.57;;;;;;;;;;5035684;28;20049;-52
2022/08/24 00:06:13;;;;;;;10.38;5.30;;;;;;;;;;5034410;28;20398;-50
2022/08/24 00:08:40;;;;;;;8.57;4.95;;;;;;;;;;5034860;28;20049;-49
2022/08/24 00:11:07;;;;;;;9.45;4.88;;;;;;;;;;5034062;28;20041;-49
2022/08/24 00:13:35;;;;;;;7.05;4.20;;;;;;;;;;5035095;28;20049;-50
2022/08/24 00:16:01;;;;;;;6.35;4.88;;;;;;;;;;5034518;28;20648;-49
2022/08/24 00:18:28;;;;;;;9.63;5.20;;;;;;;;;;5035042;28;20045;-49
2022/08/24 00:20:54;;;;;;;10.55;5.20;;;;;;;;;;5035405;28;20049;-52
2022/08/24 00:23:21;;;;;;;8.20;4.93;;;;;;;;;;5034992;28;20057;-52
2022/08/24 00:25:47;;;;;;;6.93;4.65;;;;;;;;;;5034929;28;20485;-52
2022/08/24 00:28:14;;;;;;;16.15;6.30;;;;;;;;;;5035160;28;20065;-51
2022/08/24 00:30:42;;;;;;;13.18;5.55;;;;;;;;;;5034612;28;20589;-52
2022/08/24 00:33:08;;;;;;;16.45;6.07;;;;;;;;;;5035076;28;20053;-52
2022/08/24 00:35:35;;;;;;;12.80;5.97;;;;;;;;;;5035186;28;20055;-52
2022/08/24 00:38:01;;;;;;;10.00;5.80;;;;;;;;;;5034919;28;20131;-53
2022/08/24 00:40:32;;;;;;;11.85;6.22;;;;;;;;;;5034835;28;20049;-52
2022/08/24 00:43:02;;;;;;;13.90;5.88;;;;;;;;;;5034947;28;20136;-52
2022/08/24 00:45:29;;;;;;;14.02;6.45;;;;;;;;;;5034626;28;20645;-52
2022/08/24 00:47:58;;;;;;;11.98;6.97;;;;;;;;;;5034019;28;20375;-49
2022/08/24 00:50:26;;;;;;;8.13;6.07;;;;;;;;;;5033407;28;20045;-52
2022/08/24 00:52:56;;;;;;;11.80;6.90;;;;;;;;;;5034497;28;20058;-52
2022/08/24 00:55:26;;;;;;;10.27;5.90;;;;;;;;;;5018376;28;20106;-49
2022/08/24 00:57:55;;;;;;;14.40;7.53;;;;;;;;;;5014897;28;20046;-50
2022/08/24 01:00:26;;;;;;;11.50;6.45;;;;;;;;;;5014845;28;20120;-52
2022/08/24 01:02:54;;;;;;;10.18;6.03;;;;;;;;;;5014612;28;20081;-51
2022/08/24 01:05:21;;;;;;;12.30;6.60;;;;;;;;;;5030474;28;20045;-50
2022/08/24 01:07:49;;;;;;;15.90;7.25;;;;;;;;;;5034210;28;20053;-51
2022/08/24 01:10:17;;;;;;;12.82;7.13;;;;;;;;;;5034012;28;20041;-50
2022/08/24 01:12:47;;;;;;;11.27;6.75;;;;;;;;;;5034302;28;20184;-50
2022/08/24 01:15:14;;;;;;;9.70;6.28;;;;;;;;;;5033915;28;20065;-53
2022/08/24 01:20:26;;;;;;;11.88;6.93;;;;;;;;;;5033525;28;20052;-53
2022/08/24 01:22:56;;;;;;;11.65;7.53;;;;;;;;;;5033934;28;20059;-52
2022/08/24 01:25:25;;;;;;;14.98;7.32;;;;;;;;;;5033986;28;20049;-50
2022/08/24 01:27:53;;;;;;;11.75;7.13;;;;;;;;;;5034099;28;20057;-52
2022/08/24 01:30:19;;;;;;;8.50;6.05;;;;;;;;;;5034187;28;20041;-54
2022/08/24 01:32:53;;;;;;;11.90;6.20;;;;;;;;;;5033593;28;20062;-51
2022/08/24 01:35:19;;;;;;;11.23;6.40;;;;;;;;;;5033931;28;20057;-51
2022/08/24 01:37:45;;;;;;;10.20;6.45;;;;;;;;;;5033739;28;20091;-50
2022/08/24 01:40:12;;;;;;;11.73;7.40;;;;;;;;;;5033625;28;20128;-52
2022/08/24 01:42:40;;;;;;;8.05;5.47;;;;;;;;;;5033659;28;20441;-50
2022/08/24 01:45:07;;;;;;;11.20;6.55;;;;;;;;;;5033419;28;20061;-50
2022/08/24 01:47:33;;;;;;;15.07;6.65;;;;;;;;;;5033415;28;20060;-50
2022/08/24 01:50:01;;;;;;;8.10;4.90;;;;;;;;;;5033508;28;20054;-50
2022/08/24 01:52:27;;;;;;;7.22;5.65;;;;;;;;;;5033357;28;20128;-52
2022/08/24 01:54:54;;;;;;;6.97;4.47;;;;;;;;;;5033733;28;20053;-50
2022/08/24 01:57:23;;;;;;;8.90;4.60;;;;;;;;;;5033311;28;20363;-53
2022/08/24 01:59:51;;;;;;;14.30;6.05;;;;;;;;;;5033467;28;20049;-52
2022/08/24 02:02:18;;;;;;;6.50;5.20;;;;;;;;;;5033321;28;20064;-51
2022/08/24 02:04:45;;;;;;;8.05;4.93;;;;;;;;;;5033158;28;20068;-50
2022/08/24 02:07:12;;;;;;;9.60;5.72;;;;;;;;;;5033374;28;20056;-50
2022/08/24 02:09:38;;;;;;;9.68;6.07;;;;;;;;;;5033378;28;20057;-52
2022/08/24 02:12:06;;;;;;;12.77;7.35;;;;;;;;;;5033128;28;20061;-53
2022/08/24 02:14:32;;;;;;;9.95;5.85;;;;;;;;;;5033230;28;20061;-51
2022/08/24 02:17:00;;;;;;;12.15;6.78;;;;;;;;;;5033498;28;20056;-50
2022/08/24 02:19:27;;;;;;;12.10;6.47;;;;;;;;;;5033353;28;20147;-50
2022/08/24 02:21:53;;;;;;;11.75;6.63;;;;;;;;;;5033082;28;20049;-51
2022/08/24 02:24:19;;;;;;;9.63;5.47;;;;;;;;;;5032922;28;20394;-49
2022/08/24 02:26:46;;;;;;;11.43;6.78;;;;;;;;;;5033286;28;20049;-50
2022/08/24 02:29:12;;;;;;;8.80;5.82;;;;;;;;;;5033235;28;20053;-50
2022/08/24 02:31:38;;;;;;;9.10;5.88;;;;;;;;;;5036801;28;20053;-52
2022/08/24 02:34:06;;;;;;;10.70;7.10;;;;;;;;;;5037168;28;20065;-52
2022/08/24 02:36:32;;;;;;;10.85;6.03;;;;;;;;;;5037062;28;20056;-51
2022/08/24 02:38:59;;;;;;;10.82;6.03;;;;;;;;;;5037233;28;20056;-50
2022/08/24 02:41:25;;;;;;;10.07;5.72;;;;;;;;;;5036157;28;20049;-53
2022/08/24 02:43:52;;;;;;;11.55;6.55;;;;;;;;;;5037193;28;20064;-51
2022/08/24 02:46:18;;;;;;;11.40;6.30;;;;;;;;;;5037211;28;20064;-53
2022/08/24 02:48:45;;;;;;;11.45;6.72;;;;;;;;;;5036895;28;20072;-50
2022/08/24 02:51:19;;;;;;;9.25;5.32;;;;;;;;;;5036794;28;20045;-50
2022/08/24 02:53:46;;;;;;;10.95;6.25;;;;;;;;;;5034124;28;20064;-50
2022/08/24 02:56:13;;;;;;;10.60;7.40;;;;;;;;;;5016921;28;20451;-52
2022/08/24 02:58:39;;;;;;;12.75;6.63;;;;;;;;;;5017115;28;20064;-50
2022/08/24 03:01:05;;;;;;;12.27;7.20;;;;;;;;;;5016740;28;20462;-53
2022/08/24 03:03:32;;;;;;;11.10;6.00;;;;;;;;;;5018135;28;20062;-50
2022/08/24 03:05:58;;;;;;;11.73;7.15;;;;;;;;;;5036893;28;20107;-54
2022/08/24 03:08:26;;;;;;;11.27;7.13;;;;;;;;;;5036250;28;20382;-50
2022/08/24 03:10:52;;;;;;;11.25;7.72;;;;;;;;;;5036699;28;20049;-52
2022/08/24 03:13:18;;;;;;;11.55;7.57;;;;;;;;;;5036837;28;20053;-53
2022/08/24 03:15:45;;;;;;;12.00;7.15;;;;;;;;;;5036491;28;20061;-53
2022/08/24 03:18:12;;;;;;;10.02;5.80;;;;;;;;;;5036537;28;20096;-50
2022/08/24 03:20:38;;;;;;;8.07;5.80;;;;;;;;;;5036306;28;20049;-53
2022/08/24 03:23:05;;;;;;;8.50;5.35;;;;;;;;;;5036107;28;20064;-51
2022/08/24 03:25:32;;;;;;;5.95;4.45;;;;;;;;;;5036339;28;20080;-50
2022/08/24 03:27:58;;;;;;;8.05;4.90;;;;;;;;;;5036220;28;20053;-50
2022/08/24 03:30:25;;;;;;;7.18;5.25;;;;;;;;;;5035375;28;20490;-51
2022/08/24 03:32:51;;;;;;;7.47;4.70;;;;;;;;;;5035819;28;20076;-51
2022/08/24 03:35:18;;;;;;;7.40;5.28;;;;;;;;;;5036245;28;20064;-52
2022/08/24 03:37:44;;;;;;;6.65;4.90;;;;;;;;;;5034811;28;20065;-52
2022/08/24 03:40:11;;;;;;;8.27;5.18;;;;;;;;;;5036113;28;20054;-50
2022/08/24 03:42:39;;;;;;;10.98;4.95;;;;;;;;;;5035452;28;20056;-53
2022/08/24 03:45:06;;;;;;;8.63;4.82;;;;;;;;;;5035848;28;20053;-53
2022/08/24 03:47:32;;;;;;;7.53;5.20;;;;;;;;;;5035674;28;20490;-51
2022/08/24 03:49:59;;;;;;;6.20;4.85;;;;;;;;;;5035723;28;20053;-52
2022/08/24 03:52:25;;;;;;;5.68;4.63;;;;;;;;;;5035434;28;20401;-51
2022/08/24 03:54:52;;;;;;;7.47;5.03;;;;;;;;;;5023750;28;20053;-52
2022/08/24 03:57:18;;;;;;;6.10;4.30;;;;;;;;;;5016108;28;20360;-50
2022/08/24 03:59:46;;;;;;;11.75;5.63;;;;;;;;;;5015462;28;20050;-51
2022/08/24 04:02:12;;;;;;;6.78;4.93;;;;;;;;;;5015551;28;20054;-51
2022/08/24 04:04:38;;;;;;;13.75;7.97;;;;;;;;;;5025683;28;20045;-51
2022/08/24 04:07:05;;;;;;;10.45;5.88;;;;;;;;;;5035350;28;20053;-50
2022/08/24 04:09:31;;;;;;;7.03;4.75;;;;;;;;;;5035387;28;20053;-52
2022/08/24 04:11:57;;;;;;;14.57;7.63;;;;;;;;;;5035277;28;20454;-50
2022/08/24 04:14:24;;;;;;;8.00;5.38;;;;;;;;;;5035348;28;20057;-52
2022/08/24 04:16:52;;;;;;;9.07;6.07;;;;;;;;;;5035192;28;20085;-52
2022/08/24 04:19:18;;;;;;;9.80;5.55;;;;;;;;;;5034838;28;20474;-50
2022/08/24 04:21:44;;;;;;;12.23;6.38;;;;;;;;;;5035375;28;20050;-51
2022/08/24 04:24:11;;;;;;;9.52;6.47;;;;;;;;;;5035120;28;20133;-50
2022/08/24 04:26:38;;;;;;;11.45;6.18;;;;;;;;;;5035217;28;20049;-50
2022/08/24 04:29:05;;;;;;;9.70;5.65;;;;;;;;;;5035313;28;20053;-50
2022/08/24 04:31:31;;;;;;;8.45;5.30;;;;;;;;;;5034611;28;20053;-50
2022/08/24 04:33:59;;;;;;;7.38;4.65;;;;;;;;;;5033821;28;20060;-49
2022/08/24 04:36:25;;;;;;;5.72;4.45;;;;;;;;;;5034685;28;20049;-50
2022/08/24 04:38:51;;;;;;;9.73;4.90;;;;;;;;;;5034774;28;20053;-53
2022/08/24 04:41:19;;;;;;;10.10;5.28;;;;;;;;;;5034644;28;20053;-50
2022/08/24 04:43:46;;;;;;;6.88;4.60;;;;;;;;;;5034988;28;20091;-54
2022/08/24 04:46:14;;;;;;;6.90;4.72;;;;;;;;;;5034914;28;20152;-52
2022/08/24 04:48:40;;;;;;;8.25;4.72;;;;;;;;;;5034828;28;20061;-52
2022/08/24 04:51:10;;;;;;;9.73;5.10;;;;;;;;;;5034860;28;20060;-52
2022/08/24 04:53:36;;;;;;;9.50;5.88;;;;;;;;;;5031761;28;20049;-53
2022/08/24 04:56:03;;;;;;;11.00;6.70;;;;;;;;;;5014883;28;20058;-53
2022/08/24 04:58:30;;;;;;;7.80;5.50;;;;;;;;;;5014969;28;20065;-51
2022/08/24 05:00:56;;;;;;;7.88;5.30;;;;;;;;;;5031301;28;20061;-51
2022/08/24 05:03:23;;;;;;;8.18;5.00;;;;;;;;;;5034731;28;20050;-52
2022/08/24 05:05:50;;;;;;;10.52;5.68;;;;;;;;;;5022706;28;20075;-51
2022/08/24 05:08:19;;;;;;;9.27;5.90;;;;;;;;;;5014653;28;20061;-50
2022/08/24 05:10:47;;;;;;;10.77;5.65;;;;;;;;;;5014631;28;20061;-50
2022/08/24 05:13:13;;;;;;;9.95;4.47;;;;;;;;;;5014636;28;20049;-50
2022/08/24 05:15:41;;;;;;;5.97;4.32;;;;;;;;;;5014181;28;20391;-49
2022/08/24 05:18:07;;;;;;;8.05;4.97;;;;;;;;;;5014664;28;20053;-52
2022/08/24 05:20:34;;;;;;;8.63;4.80;;;;;;;;;;5014388;28;20136;-51
2022/08/24 05:23:01;;;;;;;7.93;4.93;;;;;;;;;;5014425;28;20065;-50
2022/08/24 05:25:29;;;;;;;8.70;5.03;;;;;;;;;;5030754;28;20494;-50
2022/08/24 05:27:55;;;;;;;9.88;5.40;;;;;;;;;;5033524;28;20063;-53
2022/08/24 05:30:22;;;;;;;11.32;6.50;;;;;;;;;;5032006;28;20053;-50
2022/08/24 05:32:48;;;;;;;15.27;6.32;;;;;;;;;;5032870;28;20050;-50
2022/08/24 05:35:14;;;;;;;9.05;5.38;;;;;;;;;;5032842;28;20065;-52
2022/08/24 05:37:42;;;;;;;7.88;5.03;;;;;;;;;;5033470;28;20053;-52
2022/08/24 05:40:10;;;;;;;10.93;5.78;;;;;;;;;;5033383;28;20111;-53
2022/08/24 05:42:38;;;;;;;15.68;6.30;;;;;;;;;;5033626;28;20069;-52
2022/08/24 05:45:05;;;;;;;11.80;6.45;;;;;;;;;;5033889;28;20064;-52
2022/08/24 05:47:31;;;;;;;8.40;5.15;;;;;;;;;;5033720;28;20063;-53
2022/08/24 05:49:58;;;;;;;10.13;5.93;;;;;;;;;;5033485;28;20072;-51
2022/08/24 05:52:24;;;;;;;15.93;6.10;;;;;;;;;;5033357;28;20061;-50
2022/08/24 05:54:51;;;;;;;9.30;5.47;;;;;;;;;;5021536;28;20149;-52
2022/08/24 05:57:17;;;;;;;9.25;5.30;;;;;;;;;;5032473;28;20049;-51
2022/08/24 05:59:45;;;;;;;11.07;5.90;;;;;;;;;;5033439;28;20064;-51
2022/08/24 06:02:12;;;;;;;13.43;6.28;;;;;;;;;;5033257;28;20124;-53
2022/08/24 06:04:38;;;;;;;11.27;5.85;;;;;;;;;;5032855;28;20144;-52
2022/08/24 06:07:04;;;;;;;13.40;6.82;;;;;;;;;;5033265;28;20055;-49
2022/08/24 06:09:31;;;;;;;10.13;5.22;;;;;;;;;;5033264;28;20057;-52
2022/08/24 06:11:58;;;;;;;16.00;5.63;;;;;;;;;;5032733;28;20087;-51
2022/08/24 06:14:24;;;;;;;14.63;5.80;;;;;;;;;;5033041;28;20424;-52
2022/08/24 06:16:52;;;;;;;8.75;4.93;;;;;;;;;;5032959;28;20522;-50
2022/08/24 06:19:19;;;;;;;10.02;4.30;;;;;;;;;;5033124;28;20060;-53
2022/08/24 06:21:46;;;;;;;8.93;4.93;;;;;;;;;;5032590;28;20340;-49
2022/08/24 06:24:14;;;;;;;7.20;4.68;;;;;;;;;;5032929;28;20119;-49
2022/08/24 06:29:25;;;;;;;10.53;5.23;;;;;;;;;;5033074;28;20180;-49
2022/08/24 06:31:53;;;;;;;8.27;4.70;;;;;;;;;;5032367;28;20462;-49
2022/08/24 06:34:19;;;;;;;11.68;5.22;;;;;;;;;;5032772;28;20077;-52
2022/08/24 06:36:46;;;;;;;10.55;4.78;;;;;;;;;;5032989;28;20061;-50
2022/08/24 06:39:12;;;;;;;11.63;5.03;;;;;;;;;;5032949;28;20055;-51
2022/08/24 06:41:39;;;;;;;10.35;4.45;;;;;;;;;;5032700;28;20045;-51
2022/08/24 06:44:06;;;;;;;7.53;4.35;;;;;;;;;;5033134;28;20062;-53
2022/08/24 06:46:32;;;;;;;15.43;7.00;;;;;;;;;;5032519;28;20390;-51
2022/08/24 06:49:00;;;;;;;11.13;5.20;;;;;;;;;;5032101;28;20053;-49
2022/08/24 06:51:26;;;;;;;14.55;6.07;;;;;;;;;;5032019;28;20111;-51
2022/08/24 06:53:54;;;;;;;16.40;5.53;;;;;;;;;;5028427;28;20056;-51
2022/08/24 06:56:21;;;;;;;11.98;5.93;;;;;;;;;;5013111;28;20050;-51
2022/08/24 06:58:47;;;;;;;11.48;6.43;;;;;;;;;;5013265;28;20056;-50
2022/08/24 07:01:15;;;;;;;14.50;5.53;;;;;;;;;;5013015;28;20054;-51
2022/08/24 07:03:42;;;;;;;9.90;6.03;;;;;;;;;;5015234;28;20092;-53
2022/08/24 07:06:11;;;;;;;7.43;4.25;;;;;;;;;;5032508;28;20123;-49
2022/08/24 07:08:38;;;;;;;9.32;5.40;;;;;;;;;;5032566;28;20115;-51
2022/08/24 07:11:05;;;;;;;12.23;5.30;;;;;;;;;;5032475;28;20064;-49
2022/08/24 07:13:31;;;;;;;9.88;5.68;;;;;;;;;;5032300;28;20055;-49
2022/08/24 07:15:58;;;;;;;9.13;4.72;;;;;;;;;;5032587;28;20045;-49
2022/08/24 07:18:24;;;;;;;9.52;5.72;;;;;;;;;;5035641;28;20049;-49
2022/08/24 07:20:51;;;;;;;12.32;5.93;;;;;;;;;;5036458;28;20050;-53
2022/08/24 07:23:19;;;;;;;8.93;5.25;;;;;;;;;;5035102;28;20144;-51
2022/08/24 07:25:45;;;;;;;12.23;6.22;;;;;;;;;;5036042;28;20060;-53
2022/08/24 07:28:12;;;;;;;9.40;6.65;;;;;;;;;;5036022;28;20127;-50
2022/08/24 07:30:39;;;;;;;12.80;7.25;;;;;;;;;;5035523;28;20064;-49
2022/08/24 07:33:05;;;;;;;16.90;8.63;;;;;;;;;;5035065;28;20103;-51
2022/08/24 07:35:32;;;;;;;13.70;7.47;;;;;;;;;;5035839;28;20132;-50
2022/08/24 07:37:59;;;;;;;13.30;6.38;;;;;;;;;;5035663;28;20466;-51
2022/08/24 07:40:29;;;;;;;11.90;5.88;;;;;;;;;;5034562;28;20057;-50
2022/08/24 07:42:56;;;;;;;11.00;5.03;;;;;;;;;;5033432;28;20495;-51
2022/08/24 07:45:23;;;;;;;12.43;6.05;;;;;;;;;;5035064;28;20060;-53
2022/08/24 07:47:50;;;;;;;15.63;6.20;;;;;;;;;;5034673;28;20045;-53
2022/08/24 07:50:17;;;;;;;8.65;4.53;;;;;;;;;;5035326;28;20379;-50
2022/08/24 07:52:43;;;;;;;8.32;5.10;;;;;;;;;;5035084;28;20060;-50
2022/08/24 07:55:11;;;;;;;8.80;5.15;;;;;;;;;;5020486;28;20061;-50
2022/08/24 07:57:39;;;;;;;9.90;4.63;;;;;;;;;;5032142;28;20140;-50
2022/08/24 08:00:06;;;;;;;10.70;4.85;;;;;;;;;;5033820;28;20045;-51
2022/08/24 08:02:33;;;;;;;11.30;5.05;;;;;;;;;;5034581;28;20119;-53
2022/08/24 08:04:59;;;;;;;5.90;3.60;;;;;;;;;;5035298;28;20047;-50
2022/08/24 08:07:25;;;;;;;9.38;4.30;;;;;;;;;;5035408;28;20065;-52
2022/08/24 08:09:52;;;;;;;6.32;3.55;;;;;;;;;;5035867;28;20060;-53
2022/08/24 08:12:18;;;;;;;9.73;4.53;;;;;;;;;;5035209;28;20627;-52
2022/08/24 08:14:47;;;;;;;10.02;4.38;;;;;;;;;;5035473;28;20057;-49
2022/08/24 08:17:13;;;;;;;8.25;4.57;;;;;;;;;;5035446;28;20095;-52
2022/08/24 08:19:41;;;;;;;13.65;4.55;;;;;;;;;;5034454;28;20053;-51
2022/08/24 08:24:52;;;;;;;11.00;4.63;;;;;;;;;;5035126;28;20056;-52
2022/08/24 08:27:19;;;;;;;10.18;3.97;;;;;;;;;;5034966;28;20426;-50
2022/08/24 08:29:47;;;;;;;9.48;4.20;;;;;;;;;;5034924;28;20115;-53
2022/08/24 08:32:16;;;;;;;10.90;3.80;;;;;;;;;;5034726;28;20233;-52
2022/08/24 08:34:42;;;;;;;8.57;3.90;;;;;;;;;;5034881;28;20132;-52
2022/08/24 08:37:09;;;;;;;7.72;3.85;;;;;;;;;;5034995;28;20153;-52
2022/08/24 08:39:36;;;;;;;6.95;3.70;;;;;;;;;;5035060;28;20099;-49
2022/08/24 08:42:13;;;;;;;13.52;3.78;;;;;;;;;;5035114;28;20063;-52
2022/08/24 08:44:47;;;;;;;7.25;3.80;;;;;;;;;;5029911;28;20049;-50
2022/08/24 08:47:22;;;;;;;9.45;3.45;;;;;;;;;;5029852;28;20053;-50
2022/08/24 08:50:05;;;;;;;8.20;3.78;;;;;;;;;;5033114;28;20056;-51
2022/08/24 08:52:50;;;;;;;7.75;3.53;;;;;;;;;;5017427;28;20115;-51
2022/08/24 08:55:23;;;;;;;5.15;3.42;;;;;;;;;;5021745;28;20089;-52
2022/08/24 08:57:55;;;;;;;11.63;3.90;;;;;;;;;;5034914;28;20049;-52
2022/08/24 09:00:23;;;;;;;9.32;3.53;;;;;;;;;;5034199;28;20469;-52
2022/08/24 09:03:04;;;;;;;8.70;3.63;;;;;;;;;;5034886;28;20124;-49
2022/08/24 09:05:46;;;;;;;9.57;3.22;;;;;;;;;;5017039;28;20359;-50
2022/08/24 09:08:18;;;;;;;11.52;4.15;;;;;;;;;;5032901;28;20111;-52
2022/08/24 09:10:53;;;;;;;10.27;4.13;;;;;;;;;;5034941;28;20057;-50
2022/08/24 09:13:42;;;;;;;12.93;3.67;;;;;;;;;;5033877;28;20049;-51
2022/08/24 09:16:15;;;;;;;7.45;3.22;;;;;;;;;;5033464;28;20132;-48
2022/08/24 09:18:50;;;;;;;5.60;3.10;;;;;;;;;;5034312;28;20378;-48
2022/08/24 09:21:41;;;;;;;7.85;3.50;;;;;;;;;;5034590;28;20446;-51
2022/08/24 09:24:17;;;;;;;9.90;4.13;;;;;;;;;;5027088;28;20049;-49
2022/08/24 09:26:48;;;;;;;8.13;3.17;;;;;;;;;;5034472;28;20050;-49
2022/08/24 09:29:15;;;;;;;10.60;3.72;;;;;;;;;;5033831;28;20099;-49
2022/08/24 09:31:47;;;;;;;9.27;3.63;;;;;;;;;;5034265;28;20069;-51
2022/08/24 09:34:17;;;;;;;4.43;2.70;;;;;;;;;;5033936;28;20049;-49
2022/08/24 09:36:47;;;;;;;7.22;2.88;;;;;;;;;;5034409;28;20103;-53
2022/08/24 09:39:21;;;;;;;7.03;3.13;;;;;;;;;;5028007;28;20784;-51
2022/08/24 09:41:56;;;;;;;4.93;2.63;;;;;;;;;;5033277;28;20081;-51
2022/08/24 09:44:36;;;;;;;8.65;3.55;;;;;;;;;;5013663;28;20352;-49
2022/08/24 09:47:16;;;;;;;4.88;2.63;;;;;;;;;;5013917;28;20080;-53
2022/08/24 09:49:50;;;;;;;7.57;3.08;;;;;;;;;;5024458;28;20059;-52
2022/08/24 09:52:37;;;;;;;4.93;2.88;;;;;;;;;;5032084;28;20045;-52
2022/08/24 09:55:31;;;;;;;12.68;3.50;;;;;;;;;;5007160;28;20061;-52
2022/08/24 09:58:12;;;;;;;10.32;3.00;;;;;;;;;;5033556;28;20052;-49
2022/08/24 10:00:43;;;;;;;4.22;2.30;;;;;;;;;;5033359;28;20049;-52
2022/08/24 10:03:30;;;;;;;5.45;2.70;;;;;;;;;;5033244;28;20049;-52
2022/08/24 10:06:07;;;;;;;9.35;3.53;;;;;;;;;;5021747;28;20049;-49
2022/08/24 10:08:38;;;;;;;9.10;4.55;;;;;;;;;;5031964;28;20060;-49
2022/08/24 10:11:09;;;;;;;8.52;2.60;;;;;;;;;;5026512;28;20068;-53
2022/08/24 10:13:39;;;;;;;8.02;3.28;;;;;;;;;;5013713;28;20046;-52
2022/08/24 10:16:16;;;;;;;9.90;3.95;;;;;;;;;;5013356;28;20064;-49
2022/08/24 10:18:55;;;;;;;11.55;3.28;;;;;;;;;;5013485;28;20459;-52
2022/08/24 10:21:30;;;;;;;9.18;3.20;;;;;;;;;;5013435;28;20053;-49
2022/08/24 10:24:06;;;;;;;6.32;2.78;;;;;;;;;;5013559;28;20046;-49
2022/08/24 10:26:40;;;;;;;7.22;2.97;;;;;;;;;;5012260;28;20053;-50
2022/08/24 10:29:16;;;;;;;5.53;3.00;;;;;;;;;;5012086;28;20054;-49
2022/08/24 10:31:48;;;;;;;5.60;2.63;;;;;;;;;;5011532;28;20058;-49
2022/08/24 10:34:27;;;;;;;4.70;2.75;;;;;;;;;;5011659;28;20406;-53
2022/08/24 10:37:11;;;;;;;6.20;2.58;;;;;;;;;;5012151;28;20058;-53
2022/08/24 10:40:09;;;;;;;6.43;3.03;;;;;;;;;;5012966;28;20054;-49
2022/08/24 10:45:51;;;;;;;12.52;4.50;;;;;;;;;;4991671;28;20121;-50
2022/08/24 10:48:30;;;;;;;14.20;4.72;;;;;;;;;;4993417;28;20053;-50
2022/08/24 10:50:58;;;;;;;9.18;3.85;;;;;;;;;;5013416;28;20058;-52
2022/08/24 10:53:26;;;;;;;6.03;2.85;;;;;;;;;;5030844;28;20045;-50
2022/08/24 10:56:07;;;;;;;10.82;4.38;;;;;;;;;;5017246;28;20065;-50
2022/08/24 10:58:42;;;;;;;10.65;4.10;;;;;;;;;;5017174;28;20382;-50
2022/08/24 11:01:26;;;;;;;12.50;4.20;;;;;;;;;;5016872;28;20088;-52
2022/08/24 11:03:54;;;;;;;4.57;3.05;;;;;;;;;;5020069;28;20128;-51
2022/08/24 11:06:21;;;;;;;8.00;3.20;;;;;;;;;;5036827;28;20053;-52
2022/08/24 11:08:52;;;;;;;8.77;3.28;;;;;;;;;;5035711;28;20053;-51
2022/08/24 11:11:22;;;;;;;8.13;3.60;;;;;;;;;;5036330;28;20061;-50
2022/08/24 11:13:52;;;;;;;7.05;3.53;;;;;;;;;;5036202;28;20136;-51
2022/08/24 11:16:23;;;;;;;8.90;3.67;;;;;;;;;;5036433;28;20060;-49
2022/08/24 11:18:51;;;;;;;12.18;3.92;;;;;;;;;;5036370;28;20049;-51
2022/08/24 11:21:32;;;;;;;12.27;4.22;;;;;;;;;;5036490;28;20239;-49
2022/08/24 11:24:01;;;;;;;9.38;3.80;;;;;;;;;;5036585;28;20046;-52
2022/08/24 11:26:28;;;;;;;8.18;3.03;;;;;;;;;;5036273;28;20049;-50
2022/08/24 11:28:58;;;;;;;8.10;3.03;;;;;;;;;;5036407;28;20057;-52
2022/08/24 11:31:28;;;;;;;6.53;2.90;;;;;;;;;;5035433;28;20430;-49
2022/08/24 11:33:59;;;;;;;7.65;3.25;;;;;;;;;;5036044;28;20077;-50
2022/08/24 11:36:26;;;;;;;8.60;3.80;;;;;;;;;;5035828;28;20486;-49
2022/08/24 11:39:09;;;;;;;8.18;3.47;;;;;;;;;;5036028;28;20095;-49
2022/08/24 11:41:41;;;;;;;8.30;3.80;;;;;;;;;;5035978;28;20065;-51
2022/08/24 11:44:12;;;;;;;6.35;3.53;;;;;;;;;;5035917;28;20045;-49
2022/08/24 11:46:45;;;;;;;7.18;3.42;;;;;;;;;;5035987;28;20045;-49
2022/08/24 11:49:14;;;;;;;8.07;3.40;;;;;;;;;;5035906;28;20053;-52
2022/08/24 11:51:45;;;;;;;11.57;4.82;;;;;;;;;;5035778;28;20057;-49
2022/08/24 11:54:18;;;;;;;10.05;3.45;;;;;;;;;;5033675;28;20048;-49
2022/08/24 11:56:46;;;;;;;6.68;3.15;;;;;;;;;;5034620;28;20060;-49
2022/08/24 11:59:17;;;;;;;10.80;3.58;;;;;;;;;;5032396;28;20054;-52
2022/08/24 12:01:46;;;;;;;7.80;3.17;;;;;;;;;;5035442;28;20494;-52
2022/08/24 12:04:18;;;;;;;5.90;2.88;;;;;;;;;;5034660;28;20462;-53
2022/08/24 12:06:48;;;;;;;8.40;2.97;;;;;;;;;;5034392;28;20073;-50
2022/08/24 12:09:21;;;;;;;3.50;2.20;;;;;;;;;;5036058;28;20057;-50
2022/08/24 12:11:51;;;;;;;7.13;2.58;;;;;;;;;;5035973;28;20045;-51
2022/08/24 12:14:22;;;;;;;9.70;2.72;;;;;;;;;;5035277;28;20057;-52
2022/08/24 12:16:52;;;;;;;7.05;2.20;;;;;;;;;;5035713;28;20054;-51
2022/08/24 12:19:20;;;;;;;8.65;2.72;;;;;;;;;;5034298;28;20377;-49
2022/08/24 12:21:49;;;;;;;8.30;2.83;;;;;;;;;;5033319;28;20052;-52
2022/08/24 12:24:17;;;;;;;9.77;2.97;;;;;;;;;;5033672;28;20049;-50
2022/08/24 12:26:47;;;;;;;10.50;2.47;;;;;;;;;;5030901;28;20053;-52
2022/08/24 12:29:17;;;;;;;4.72;2.15;;;;;;;;;;5033201;28;20057;-52
2022/08/24 12:31:47;;;;;;;6.93;2.33;;;;;;;;;;5034237;28;20065;-49
2022/08/24 12:34:21;;;;;;;7.95;2.65;;;;;;;;;;5035057;28;20076;-51
2022/08/24 12:36:53;;;;;;;9.40;2.50;;;;;;;;;;5034060;28;20081;-52
2022/08/24 12:39:22;;;;;;;10.50;2.20;;;;;;;;;;5034696;28;20405;-50
2022/08/24 12:41:52;;;;;;;5.10;2.03;;;;;;;;;;5034913;28;20049;-53
2022/08/24 12:44:18;;;;;;;4.22;1.90;;;;;;;;;;5034498;28;20517;-49
2022/08/24 12:46:51;;;;;;;7.40;1.80;;;;;;;;;;5034679;28;20458;-49
2022/08/24 12:49:21;;;;;;;7.10;2.28;;;;;;;;;;5034188;28;20081;-49
2022/08/24 12:51:59;;;;;;;8.40;2.00;;;;;;;;;;5034536;28;20049;-50
2022/08/24 12:54:35;;;;;;;3.58;1.85;;;;;;;;;;5026287;28;20058;-48
2022/08/24 12:57:10;;;;;;;5.22;1.88;;;;;;;;;;5015039;28;20050;-49
2022/08/24 12:59:39;;;;;;;3.90;1.40;;;;;;;;;;5015106;28;20072;-49
2022/08/24 13:02:24;;;;;;;4.90;1.90;;;;;;;;;;5033243;28;20061;-49
2022/08/24 13:04:56;;;;;;;4.68;1.85;;;;;;;;;;5034466;28;20048;-49
2022/08/24 13:07:27;;;;;;;5.68;2.10;;;;;;;;;;5034273;28;20057;-49
2022/08/24 13:10:06;;;;;;;4.95;1.90;;;;;;;;;;5034401;28;20111;-49
2022/08/24 13:12:51;;;;;;;6.63;1.75;;;;;;;;;;5034236;28;20091;-52
2022/08/24 13:15:21;;;;;;;5.57;2.17;;;;;;;;;;5031205;28;20057;-48
2022/08/24 13:17:50;;;;;;;5.40;2.00;;;;;;;;;;5032024;28;20587;-49
2022/08/24 13:20:20;;;;;;;5.28;1.92;;;;;;;;;;5034036;28;20483;-52
2022/08/24 13:22:48;;;;;;;10.05;1.98;;;;;;;;;;5033520;28;20076;-50
2022/08/24 13:25:21;;;;;;;3.80;1.67;;;;;;;;;;5034322;28;20481;-49
2022/08/24 13:28:00;;;;;;;8.68;1.90;;;;;;;;;;5030713;28;20348;-49
2022/08/24 13:30:32;;;;;;;3.65;1.35;;;;;;;;;;5023389;28;20068;-52
2022/08/24 13:33:03;;;;;;;6.47;1.90;;;;;;;;;;5021521;28;20108;-52
2022/08/24 13:35:35;;;;;;;5.93;1.75;;;;;;;;;;5028778;28;20358;-49
2022/08/24 13:38:20;;;;;;;5.53;1.70;;;;;;;;;;5032830;28;20466;-52
2022/08/24 13:40:49;;;;;;;9.30;1.90;;;;;;;;;;5033781;28;20685;-51
2022/08/24 13:43:18;;;;;;;4.03;1.48;;;;;;;;;;5033719;28;20053;-52
2022/08/24 13:45:49;;;;;;;3.58;1.83;;;;;;;;;;5033879;28;20049;-50
2022/08/24 13:48:22;;;;;;;4.90;1.73;;;;;;;;;;5033482;28;20437;-53
2022/08/24 13:50:58;;;;;;;6.15;2.40;;;;;;;;;;5027532;28;20136;-53
2022/08/24 13:53:35;;;;;;;7.10;2.10;;;;;;;;;;5033965;28;20042;-53
2022/08/24 13:56:18;;;;;;;6.20;2.17;;;;;;;;;;5023349;28;20057;-52
2022/08/24 13:58:49;;;;;;;6.22;2.25;;;;;;;;;;5017748;28;20155;-52
2022/08/24 14:01:22;;;;;;;6.05;2.45;;;;;;;;;;5029649;28;20061;-49
2022/08/24 14:03:58;;;;;;;7.13;2.13;;;;;;;;;;5033023;28;20064;-50
2022/08/24 14:06:30;;;;;;;5.53;2.40;;;;;;;;;;5031241;28;20045;-49
2022/08/24 14:09:01;;;;;;;4.40;1.95;;;;;;;;;;5021951;28;20046;-50
2022/08/24 14:11:36;;;;;;;5.45;2.20;;;;;;;;;;5030108;28;20063;-50
2022/08/24 14:14:05;;;;;;;6.15;2.25;;;;;;;;;;5032641;28;20053;-53
2022/08/24 14:19:26;;;;;;;6.35;2.13;;;;;;;;;;5025522;28;20056;-54
2022/08/24 14:21:56;;;;;;;4.05;1.98;;;;;;;;;;5024949;28;20128;-50
2022/08/24 14:24:26;;;;;;;8.75;2.78;;;;;;;;;;5031675;28;20378;-52
2022/08/24 14:27:10;;;;;;;8.82;2.28;;;;;;;;;;5032337;28;20061;-54
2022/08/24 14:29:39;;;;;;;4.20;1.90;;;;;;;;;;5025401;28;20061;-51
2022/08/24 14:32:26;;;;;;;7.65;2.10;;;;;;;;;;5032405;28;20686;-51
2022/08/24 14:34:59;;;;;;;4.78;2.20;;;;;;;;;;5028667;28;20112;-54
2022/08/24 14:37:33;;;;;;;5.32;2.20;;;;;;;;;;5030826;28;20108;-51
2022/08/24 14:40:07;;;;;;;5.88;2.10;;;;;;;;;;5033277;28;20088;-50
2022/08/24 14:42:36;;;;;;;10.48;3.03;;;;;;;;;;5032705;28;20132;-47
2022/08/24 14:45:06;;;;;;;7.50;2.22;;;;;;;;;;5031645;28;20053;-49
2022/08/24 14:47:40;;;;;;;5.68;2.42;;;;;;;;;;5027787;28;20077;-48
2022/08/24 14:50:12;;;;;;;5.43;2.00;;;;;;;;;;5019992;28;20091;-48
2022/08/24 14:52:48;;;;;;;6.07;2.05;;;;;;;;;;5031517;28;20061;-47
2022/08/24 14:55:18;;;;;;;6.57;2.25;;;;;;;;;;5016102;28;20089;-48
2022/08/24 14:57:49;;;;;;;9.57;2.67;;;;;;;;;;5015932;28;20339;-49
2022/08/24 15:00:19;;;;;;;5.68;2.25;;;;;;;;;;5032114;28;20050;-50
2022/08/24 15:03:03;;;;;;;5.18;2.40;;;;;;;;;;5031827;28;20045;-48
2022/08/24 15:05:40;;;;;;;9.20;3.08;;;;;;;;;;5032527;28;20041;-48
2022/08/24 15:08:07;;;;;;;7.80;2.47;;;;;;;;;;5032393;28;20060;-50